createdAt,value
2022-10-17T00:00:31.012Z,57.30
2022-10-17T00:03:00.388Z,57.40
2022-10-17T00:05:28.422Z,57.30
2022-10-17T00:07:56.515Z,57.40
2022-10-17T00:10:24.942Z,57.40
2022-10-17T00:12:53.378Z,57.40
2022-10-17T00:15:23.370Z,57.30
2022-10-17T00:17:51.192Z,57.40
2022-10-17T00:20:20.795Z,57.40
2022-10-17T00:22:48.675Z,57.40
2022-10-17T00:25:16.680Z,57.40
2022-10-17T00:27:44.800Z,57.40
2022-10-17T00:30:15.064Z,57.40
2022-10-17T00:32:43.189Z,57.30
2022-10-17T00:35:11.528Z,57.30
2022-10-17T00:37:40.673Z,57.30
2022-10-17T00:40:09.987Z,57.40
2022-10-17T00:42:37.869Z,57.40
2022-10-17T00:45:15.545Z,57.30
2022-10-17T00:47:46.165Z,57.30
2022-10-17T00:50:14.742Z,57.30
2022-10-17T00:52:45.352Z,57.30
2022-10-17T00:55:17.556Z,57.30
2022-10-17T00:57:46.922Z,57.40
2022-10-17T01:00:16.577Z,57.30
2022-10-17T01:02:45.028Z,57.30
2022-10-17T01:05:13.546Z,57.30
2022-10-17T01:07:44.122Z,57.30
2022-10-17T01:10:13.830Z,57.30
2022-10-17T01:12:53.939Z,57.30
2022-10-17T01:15:34.383Z,57.30
2022-10-17T01:18:13.819Z,57.30
2022-10-17T01:21:09.441Z,57.30
2022-10-17T01:24:04.360Z,57.30
2022-10-17T01:26:45.349Z,57.30
2022-10-17T01:29:36.600Z,57.30
2022-10-17T01:32:12.072Z,57.30
2022-10-17T01:34:46.385Z,57.30
2022-10-17T01:37:20.214Z,57.30
2022-10-17T01:39:51.680Z,57.30
2022-10-17T01:42:24.932Z,57.30
2022-10-17T01:44:58.291Z,57.30
2022-10-17T01:47:31.310Z,57.30
2022-10-17T01:50:03.708Z,57.30
2022-10-17T01:52:36.662Z,57.30
2022-10-17T01:55:09.138Z,58.00
2022-10-17T01:57:40.703Z,57.30
2022-10-17T02:00:13.870Z,57.30
2022-10-17T02:02:46.145Z,57.30
2022-10-17T02:05:14.200Z,57.30
2022-10-17T02:07:42.542Z,57.30
2022-10-17T02:10:17.079Z,57.30
2022-10-17T02:12:56.320Z,57.30
2022-10-17T02:15:41.340Z,57.30
2022-10-17T02:18:26.158Z,57.30
2022-10-17T02:21:01.728Z,57.30
2022-10-17T02:23:38.821Z,57.30
2022-10-17T02:26:12.442Z,57.30
2022-10-17T02:28:48.274Z,57.30
2022-10-17T02:31:21.242Z,57.30
2022-10-17T02:33:55.111Z,57.30
2022-10-17T02:36:27.397Z,57.30
2022-10-17T02:38:56.532Z,57.30
2022-10-17T02:41:25.671Z,57.20
2022-10-17T02:43:57.649Z,57.30
2022-10-17T02:46:29.659Z,57.30
2022-10-17T02:49:03.799Z,57.30
2022-10-17T02:51:38.533Z,57.30
2022-10-17T02:54:11.706Z,57.30
2022-10-17T02:56:45.111Z,57.20
2022-10-17T02:59:16.608Z,57.20
2022-10-17T03:01:44.973Z,57.30
2022-10-17T03:04:15.560Z,57.20
2022-10-17T03:06:43.541Z,57.20
2022-10-17T03:09:11.548Z,57.30
2022-10-17T03:11:39.527Z,57.20
2022-10-17T03:14:07.482Z,57.20
2022-10-17T03:16:35.353Z,57.20
2022-10-17T03:19:03.189Z,57.30
2022-10-17T03:21:32.410Z,57.20
2022-10-17T03:24:00.322Z,57.30
2022-10-17T03:26:29.528Z,57.30
2022-10-17T03:28:57.493Z,57.20
2022-10-17T03:31:25.376Z,57.20
2022-10-17T03:33:53.330Z,57.20
2022-10-17T03:36:21.811Z,57.20
2022-10-17T03:38:55.220Z,57.20
2022-10-17T03:41:23.091Z,57.30
2022-10-17T03:43:50.897Z,57.30
2022-10-17T03:48:51.524Z,57.20
2022-10-17T03:51:19.670Z,57.30
2022-10-17T03:53:47.490Z,57.20
2022-10-17T03:56:18.439Z,57.20
2022-10-17T03:58:46.388Z,57.30
2022-10-17T04:01:16.058Z,57.20
2022-10-17T04:03:44.164Z,57.20
2022-10-17T04:06:13.733Z,57.30
2022-10-17T04:08:42.623Z,57.20
2022-10-17T04:11:12.347Z,57.20
2022-10-17T04:13:41.568Z,57.20
2022-10-17T04:16:12.771Z,57.20
2022-10-17T04:18:40.614Z,57.20
2022-10-17T04:21:09.095Z,57.30
2022-10-17T04:23:37.101Z,57.20
2022-10-17T04:26:05.920Z,57.20
2022-10-17T04:28:34.204Z,57.20
2022-10-17T04:31:05.857Z,57.20
2022-10-17T04:33:34.619Z,57.30
2022-10-17T04:36:04.378Z,57.20
2022-10-17T04:38:32.614Z,57.20
2022-10-17T04:41:03.015Z,57.20
2022-10-17T04:43:31.260Z,57.20
2022-10-17T04:45:59.282Z,57.20
2022-10-17T04:48:29.803Z,57.20
2022-10-17T04:50:59.087Z,57.90
2022-10-17T04:53:27.907Z,57.20
2022-10-17T04:55:55.953Z,57.20
2022-10-17T04:58:24.042Z,57.20
2022-10-17T05:00:51.987Z,57.20
2022-10-17T05:03:20.531Z,57.20
2022-10-17T05:05:49.715Z,57.20
2022-10-17T05:08:17.538Z,57.20
2022-10-17T05:10:47.058Z,57.20
2022-10-17T05:13:14.924Z,57.20
2022-10-17T05:15:42.835Z,57.20
2022-10-17T05:18:11.013Z,57.20
2022-10-17T05:20:39.139Z,57.20
2022-10-17T05:23:08.309Z,57.20
2022-10-17T05:25:36.138Z,57.20
2022-10-17T05:28:03.942Z,57.20
2022-10-17T05:30:35.200Z,57.20
2022-10-17T05:33:05.386Z,57.20
2022-10-17T05:35:33.218Z,57.20
2022-10-17T05:38:01.621Z,57.20
2022-10-17T05:40:30.808Z,57.20
2022-10-17T05:42:58.643Z,57.20
2022-10-17T05:45:26.432Z,57.20
2022-10-17T05:47:54.262Z,57.20
2022-10-17T05:50:23.936Z,57.20
2022-10-17T05:52:54.800Z,57.20
2022-10-17T05:55:24.092Z,57.20
2022-10-17T05:57:53.971Z,57.20
2022-10-17T06:00:22.244Z,57.20
2022-10-17T06:02:50.082Z,57.20
2022-10-17T06:05:18.050Z,57.20
2022-10-17T06:07:46.309Z,57.20
2022-10-17T06:10:16.289Z,57.20
2022-10-17T06:12:44.292Z,57.20
2022-10-17T06:15:14.158Z,57.20
2022-10-17T06:17:41.957Z,57.20
2022-10-17T06:20:10.572Z,57.20
2022-10-17T06:22:38.377Z,57.20
2022-10-17T06:25:07.018Z,57.20
2022-10-17T06:27:34.828Z,57.20
2022-10-17T06:30:02.672Z,57.20
2022-10-17T06:32:32.391Z,57.20
2022-10-17T06:35:00.397Z,57.20
2022-10-17T06:37:35.309Z,57.20
2022-10-17T06:40:05.162Z,57.20
2022-10-17T06:42:33.694Z,57.80
2022-10-17T06:45:01.567Z,57.20
2022-10-17T06:47:31.099Z,57.20
2022-10-17T06:49:59.213Z,57.20
2022-10-17T06:52:27.209Z,57.20
2022-10-17T06:54:55.104Z,57.20
2022-10-17T06:57:22.956Z,57.20
2022-10-17T06:59:50.774Z,57.20
2022-10-17T07:02:18.609Z,57.20
2022-10-17T07:04:48.530Z,57.20
2022-10-17T07:07:16.388Z,57.20
2022-10-17T07:09:44.253Z,57.20
2022-10-17T07:12:12.776Z,57.20
2022-10-17T07:14:40.645Z,57.20
2022-10-17T07:17:08.502Z,57.20
2022-10-17T07:19:36.330Z,57.20
2022-10-17T07:22:05.549Z,57.20
2022-10-17T07:24:33.385Z,57.20
2022-10-17T07:27:01.275Z,57.20
2022-10-17T07:29:29.118Z,57.20
2022-10-17T07:31:56.942Z,57.20
2022-10-17T07:34:27.440Z,57.20
2022-10-17T07:36:55.419Z,57.20
2022-10-17T07:39:24.632Z,57.20
2022-10-17T07:41:52.508Z,57.20
2022-10-17T07:44:20.776Z,57.20
2022-10-17T07:46:48.600Z,57.20
2022-10-17T07:49:16.478Z,57.20
2022-10-17T07:51:44.354Z,57.20
2022-10-17T07:54:12.163Z,57.20
2022-10-17T07:56:41.364Z,57.20
2022-10-17T07:59:09.660Z,57.20
2022-10-17T08:01:37.950Z,57.30
2022-10-17T08:04:05.786Z,57.20
2022-10-17T08:06:33.627Z,57.20
2022-10-17T08:09:01.998Z,57.20
2022-10-17T08:11:29.874Z,57.20
2022-10-17T08:13:59.049Z,57.20
2022-10-17T08:16:26.921Z,57.20
2022-10-17T08:18:54.899Z,57.20
2022-10-17T08:21:22.977Z,57.20
2022-10-17T08:23:50.797Z,57.20
2022-10-17T08:26:20.036Z,57.20
2022-10-17T08:28:48.388Z,57.30
2022-10-17T08:31:20.124Z,57.20
2022-10-17T08:33:48.933Z,57.20
2022-10-17T08:36:18.750Z,57.30
2022-10-17T08:38:51.825Z,57.20
2022-10-17T08:41:34.963Z,57.20
2022-10-17T08:44:12.498Z,57.30
2022-10-17T08:46:45.256Z,57.20
2022-10-17T08:49:20.453Z,57.20
2022-10-17T08:51:52.500Z,57.20
2022-10-17T08:54:23.299Z,57.20
2022-10-17T08:56:53.536Z,57.20
2022-10-17T08:59:26.778Z,57.20
2022-10-17T09:02:02.708Z,57.30
2022-10-17T09:04:47.392Z,57.20
2022-10-17T09:07:22.918Z,57.20
2022-10-17T09:10:08.168Z,57.20
2022-10-17T09:12:44.348Z,57.20
2022-10-17T09:15:33.002Z,57.20
2022-10-17T09:18:06.206Z,57.20
2022-10-17T09:20:37.982Z,57.20
2022-10-17T09:23:12.735Z,57.20
2022-10-17T09:25:45.502Z,57.20
2022-10-17T09:28:19.122Z,57.20
2022-10-17T09:30:50.262Z,57.20
2022-10-17T09:33:34.724Z,57.20
2022-10-17T09:36:06.120Z,57.20
2022-10-17T09:38:40.486Z,57.20
2022-10-17T09:41:43.639Z,57.20
2022-10-17T09:44:20.196Z,57.20
2022-10-17T09:47:00.702Z,57.20
2022-10-17T09:49:33.478Z,57.20
2022-10-17T09:52:02.588Z,57.20
2022-10-17T09:54:41.008Z,57.20
2022-10-17T09:57:11.253Z,57.20
2022-10-17T09:59:41.476Z,57.20
2022-10-17T10:02:13.879Z,57.20
2022-10-17T10:05:08.543Z,57.20
2022-10-17T10:07:38.350Z,57.20
2022-10-17T10:10:08.481Z,57.20
2022-10-17T10:12:38.935Z,57.20
2022-10-17T10:15:35.226Z,57.20
2022-10-17T10:18:03.094Z,57.20
2022-10-17T10:20:35.648Z,57.20
2022-10-17T10:23:08.844Z,57.20
2022-10-17T10:25:37.381Z,57.20
2022-10-17T10:28:11.829Z,57.20
2022-10-17T10:30:40.202Z,57.20
2022-10-17T10:33:12.504Z,57.20
2022-10-17T10:35:41.836Z,57.20
2022-10-17T10:38:14.626Z,57.20
2022-10-17T10:40:48.765Z,57.20
2022-10-17T10:43:25.388Z,57.20
2022-10-17T10:45:53.921Z,57.20
2022-10-17T10:48:24.289Z,57.20
2022-10-17T10:50:57.276Z,57.20
2022-10-17T10:53:37.106Z,57.20
2022-10-17T10:56:10.903Z,57.20
2022-10-17T10:58:47.068Z,57.20
2022-10-17T11:01:21.181Z,57.20
2022-10-17T11:03:58.268Z,57.30
2022-10-17T11:06:30.702Z,57.30
2022-10-17T11:09:14.809Z,57.20
2022-10-17T11:11:46.573Z,57.20
2022-10-17T11:14:18.405Z,57.30
2022-10-17T11:16:50.279Z,57.30
2022-10-17T11:19:22.092Z,57.30
2022-10-17T11:22:03.570Z,57.30
2022-10-17T11:24:36.982Z,57.30
2022-10-17T11:27:07.046Z,57.30
2022-10-17T11:29:36.515Z,57.30
2022-10-17T11:32:09.401Z,57.30
2022-10-17T11:34:42.600Z,57.30
2022-10-17T11:37:17.210Z,57.30
2022-10-17T11:39:49.635Z,57.30
2022-10-17T11:42:22.585Z,57.30
2022-10-17T11:44:55.833Z,57.30
2022-10-17T11:47:37.494Z,57.30
2022-10-17T11:53:10.400Z,57.40
2022-10-17T11:55:39.560Z,57.40
2022-10-17T11:58:24.576Z,57.40
2022-10-17T12:01:00.366Z,57.40
2022-10-17T12:03:37.671Z,57.40
2022-10-17T12:06:14.598Z,57.40
2022-10-17T12:08:50.031Z,57.40
2022-10-17T12:11:30.386Z,57.50
2022-10-17T12:13:58.937Z,57.40
2022-10-17T12:16:45.414Z,57.40
2022-10-17T12:19:32.631Z,57.40
2022-10-17T12:22:19.722Z,57.40
2022-10-17T12:24:56.985Z,57.40
2022-10-17T12:27:37.081Z,57.40
2022-10-17T12:30:15.693Z,57.40
2022-10-17T12:33:05.614Z,57.40
2022-10-17T12:35:36.345Z,57.40
2022-10-17T12:38:22.776Z,57.50
2022-10-17T12:40:59.552Z,57.50
2022-10-17T12:46:47.542Z,57.40
2022-10-17T12:49:41.098Z,57.50
2022-10-17T12:52:48.565Z,57.50
2022-10-17T12:55:19.132Z,57.50
2022-10-17T12:57:56.477Z,57.50
2022-10-17T13:00:32.155Z,57.50
2022-10-17T13:03:12.969Z,57.50
2022-10-17T13:05:43.350Z,57.50
2022-10-17T13:08:18.796Z,57.50
2022-10-17T13:10:51.739Z,57.50
2022-10-17T13:13:24.377Z,57.50
2022-10-17T13:15:54.208Z,57.50
2022-10-17T13:18:23.863Z,57.50
2022-10-17T13:21:00.014Z,57.50
2022-10-17T13:23:33.113Z,57.50
2022-10-17T13:26:13.186Z,57.50
2022-10-17T13:28:42.645Z,57.50
2022-10-17T13:31:29.741Z,57.60
2022-10-17T13:33:58.972Z,57.50
2022-10-17T13:36:28.066Z,57.50
2022-10-17T13:38:56.206Z,57.50
2022-10-17T13:41:35.788Z,57.50
2022-10-17T13:44:13.785Z,57.50
2022-10-17T13:46:42.447Z,57.50
2022-10-17T13:49:19.140Z,57.60
2022-10-17T13:51:49.146Z,57.60
2022-10-17T13:54:31.600Z,57.60
2022-10-17T13:57:00.713Z,57.60
2022-10-17T13:59:37.923Z,57.60
2022-10-17T14:02:12.384Z,57.60
2022-10-17T14:05:11.581Z,57.60
2022-10-17T14:07:46.146Z,57.60
2022-10-17T14:10:24.038Z,57.60
2022-10-17T14:12:52.944Z,57.50
2022-10-17T14:15:26.476Z,57.60
2022-10-17T14:17:57.981Z,57.60
2022-10-17T14:21:19.410Z,57.60
2022-10-17T14:23:31.507Z,57.70
2022-10-17T14:26:12.428Z,57.70
2022-10-17T14:28:40.922Z,57.70
2022-10-17T14:31:24.757Z,57.60
2022-10-17T14:33:54.378Z,57.70
2022-10-17T14:36:32.364Z,57.60
2022-10-17T14:39:01.786Z,57.60
2022-10-17T14:41:48.588Z,57.60
2022-10-17T14:44:24.641Z,57.60
2022-10-17T14:46:57.870Z,57.60
2022-10-17T14:49:32.584Z,57.60
2022-10-17T14:52:27.404Z,57.60
2022-10-17T14:54:55.574Z,57.60
2022-10-17T14:57:27.143Z,57.60
2022-10-17T14:59:56.428Z,57.60
2022-10-17T15:02:27.213Z,57.60
2022-10-17T15:04:55.742Z,57.60
2022-10-17T15:07:24.427Z,57.60
2022-10-17T15:09:54.308Z,57.60
2022-10-17T15:12:24.732Z,57.70
2022-10-17T15:14:53.525Z,57.60
2022-10-17T15:17:24.348Z,57.60
2022-10-17T15:19:53.730Z,57.70
2022-10-17T15:22:21.796Z,57.60
2022-10-17T15:24:49.877Z,57.60
2022-10-17T15:27:19.459Z,57.70
2022-10-17T15:29:47.918Z,57.60
2022-10-17T15:32:16.566Z,57.50
2022-10-17T15:34:44.765Z,57.70
2022-10-17T15:37:21.103Z,57.60
2022-10-17T15:39:53.394Z,57.60
2022-10-17T15:42:22.522Z,57.60
2022-10-17T15:44:50.516Z,57.60
2022-10-17T15:47:29.511Z,57.60
2022-10-17T15:49:58.518Z,57.60
2022-10-17T15:52:28.394Z,57.60
2022-10-17T15:54:59.516Z,57.60
2022-10-17T15:57:34.629Z,57.60
2022-10-17T16:00:02.549Z,57.60
2022-10-17T16:02:30.439Z,57.60
2022-10-17T16:04:58.320Z,57.60
2022-10-17T16:07:27.624Z,57.60
2022-10-17T16:09:55.628Z,57.60
2022-10-17T16:12:28.882Z,57.60
2022-10-17T16:14:57.278Z,57.60
2022-10-17T16:17:25.149Z,57.60
2022-10-17T16:19:53.392Z,57.60
2022-10-17T16:22:32.136Z,57.60
2022-10-17T16:25:09.301Z,57.50
2022-10-17T16:27:38.095Z,57.60
2022-10-17T16:30:08.342Z,57.50
2022-10-17T16:32:36.275Z,57.50
2022-10-17T16:35:04.403Z,57.50
2022-10-17T16:37:32.633Z,57.50
2022-10-17T16:40:01.850Z,57.50
2022-10-17T16:42:29.971Z,57.50
2022-10-17T16:44:57.920Z,57.50
2022-10-17T16:47:25.799Z,57.50
2022-10-17T16:49:53.584Z,57.50
2022-10-17T16:52:21.429Z,57.50
2022-10-17T16:54:49.248Z,57.50
2022-10-17T16:57:19.141Z,57.50
2022-10-17T16:59:46.960Z,57.50
2022-10-17T17:02:17.590Z,57.50
2022-10-17T17:04:48.316Z,57.50
2022-10-17T17:07:18.048Z,57.50
2022-10-17T17:09:46.092Z,57.50
2022-10-17T17:12:14.114Z,57.50
2022-10-17T17:14:43.310Z,57.50
2022-10-17T17:17:19.479Z,57.50
2022-10-17T17:19:58.499Z,57.50
2022-10-17T17:22:26.360Z,58.20
2022-10-17T17:24:54.155Z,57.40
2022-10-17T17:27:24.278Z,57.40
2022-10-17T17:29:53.450Z,57.60
2022-10-17T17:32:21.619Z,57.40
2022-10-17T17:34:49.557Z,57.60
2022-10-17T17:37:17.390Z,57.50
2022-10-17T17:39:45.263Z,57.50
2022-10-17T17:42:13.100Z,57.50
2022-10-17T17:44:40.948Z,57.50
2022-10-17T17:47:10.127Z,57.60
2022-10-17T17:49:38.072Z,57.60
2022-10-17T17:52:06.173Z,57.50
2022-10-17T17:54:37.243Z,57.50
2022-10-17T17:57:08.118Z,57.50
2022-10-17T17:59:36.166Z,57.50
2022-10-17T18:02:06.223Z,57.50
2022-10-17T18:04:35.889Z,57.50
2022-10-17T18:07:03.711Z,57.60
2022-10-17T18:09:31.546Z,57.50
2022-10-17T18:11:59.334Z,57.50
2022-10-17T18:14:27.227Z,57.50
2022-10-17T18:16:55.023Z,57.50
2022-10-17T18:19:23.748Z,57.50
2022-10-17T18:21:53.011Z,57.50
2022-10-17T18:24:20.832Z,57.50
2022-10-17T18:26:48.813Z,57.50
2022-10-17T18:29:16.756Z,57.50
2022-10-17T18:31:44.550Z,57.50
2022-10-17T18:34:12.366Z,57.50
2022-10-17T18:36:40.184Z,57.50
2022-10-17T18:39:09.375Z,57.50
2022-10-17T18:41:37.194Z,57.50
2022-10-17T18:44:05.290Z,57.50
2022-10-17T18:46:40.107Z,57.50
2022-10-17T18:49:09.050Z,57.50
2022-10-17T18:51:37.039Z,57.50
2022-10-17T18:54:05.224Z,57.50
2022-10-17T18:56:34.773Z,57.50
2022-10-17T18:59:02.652Z,57.50
2022-10-17T19:01:30.787Z,57.50
2022-10-17T19:04:00.117Z,58.10
2022-10-17T19:06:31.592Z,57.50
2022-10-17T19:09:00.716Z,58.10
2022-10-17T19:11:30.040Z,57.50
2022-10-17T19:14:00.959Z,57.50
2022-10-17T19:16:30.149Z,57.60
2022-10-17T19:19:00.793Z,57.60
2022-10-17T19:21:28.758Z,57.60
2022-10-17T19:23:58.139Z,57.40
2022-10-17T19:26:27.825Z,57.60
2022-10-17T19:28:56.274Z,57.60
2022-10-17T19:31:28.036Z,57.60
2022-10-17T19:33:57.137Z,57.40
2022-10-17T19:36:30.764Z,57.50
2022-10-17T19:39:02.398Z,57.50
2022-10-17T19:41:30.282Z,57.50
2022-10-17T19:43:58.234Z,57.50
2022-10-17T19:46:28.916Z,57.50
2022-10-17T19:48:57.110Z,57.50
2022-10-17T19:51:26.260Z,57.50
2022-10-17T19:53:55.905Z,57.50
2022-10-17T19:56:25.262Z,57.50
2022-10-17T19:58:54.294Z,57.50
2022-10-17T20:01:23.788Z,57.60
2022-10-17T20:03:53.411Z,57.50
2022-10-17T20:06:21.880Z,57.50
2022-10-17T20:08:50.534Z,57.50
2022-10-17T20:11:21.573Z,57.50
2022-10-17T20:13:49.967Z,57.50
2022-10-17T20:16:21.430Z,57.50
2022-10-17T20:18:50.055Z,57.50
2022-10-17T20:21:21.676Z,57.50
2022-10-17T20:23:50.547Z,57.50
2022-10-17T20:29:12.129Z,57.50
2022-10-17T20:31:41.556Z,57.50
2022-10-17T20:34:12.910Z,58.10
2022-10-17T20:36:42.537Z,57.50
2022-10-17T20:39:12.815Z,57.50
2022-10-17T20:41:40.826Z,57.50
2022-10-17T20:44:08.794Z,57.50
2022-10-17T20:46:39.826Z,57.50
2022-10-17T20:49:16.801Z,58.10
2022-10-17T20:51:46.150Z,57.50
2022-10-17T20:54:14.214Z,57.50
2022-10-17T20:56:42.111Z,57.50
2022-10-17T20:59:13.729Z,57.50
2022-10-17T21:01:41.851Z,57.50
2022-10-17T21:04:40.553Z,57.50
2022-10-17T21:06:59.635Z,57.40
2022-10-17T21:09:27.541Z,57.40
2022-10-17T21:11:56.004Z,57.40
2022-10-17T21:14:24.877Z,57.50
2022-10-17T21:16:53.204Z,57.40
2022-10-17T21:19:22.356Z,57.50
2022-10-17T21:21:50.598Z,57.40
2022-10-17T21:24:20.739Z,57.50
2022-10-17T21:26:55.109Z,57.50
2022-10-17T21:29:24.026Z,57.40
2022-10-17T21:31:52.238Z,57.50
2022-10-17T21:34:23.796Z,57.50
2022-10-17T21:36:52.386Z,57.40
2022-10-17T21:39:23.975Z,57.40
2022-10-17T21:41:52.196Z,57.40
2022-10-17T21:44:22.430Z,57.40
2022-10-17T21:46:50.724Z,57.40
2022-10-17T21:49:20.012Z,57.40
2022-10-17T21:51:48.977Z,57.40
2022-10-17T21:54:18.125Z,57.50
2022-10-17T21:56:47.691Z,57.50
2022-10-17T21:59:15.623Z,57.50
2022-10-17T22:01:45.533Z,57.50
2022-10-17T22:04:15.003Z,57.40
2022-10-17T22:06:45.490Z,57.50
2022-10-17T22:09:15.701Z,57.50
2022-10-17T22:11:47.487Z,57.60
2022-10-17T22:14:18.757Z,57.50
2022-10-17T22:16:47.642Z,57.50
2022-10-17T22:19:18.310Z,57.50
2022-10-17T22:21:46.676Z,57.50
2022-10-17T22:24:16.744Z,57.60
2022-10-17T22:26:45.519Z,57.50
2022-10-17T22:29:14.797Z,57.50
2022-10-17T22:31:42.846Z,57.50
2022-10-17T22:34:12.666Z,57.50
2022-10-17T22:36:40.548Z,57.50
2022-10-17T22:39:08.639Z,57.50
2022-10-17T22:41:36.666Z,57.40
2022-10-17T22:44:04.906Z,57.40
2022-10-17T22:46:34.258Z,57.60
2022-10-17T22:49:02.073Z,57.50
2022-10-17T22:51:29.959Z,57.50
2022-10-17T22:53:57.854Z,57.50
2022-10-17T22:56:25.812Z,57.50
2022-10-17T22:58:53.877Z,57.50
2022-10-17T23:01:23.640Z,57.50
2022-10-17T23:03:53.690Z,57.50
2022-10-17T23:06:22.416Z,57.50
2022-10-17T23:08:50.607Z,57.50
2022-10-17T23:11:18.489Z,57.50
2022-10-17T23:13:46.294Z,57.50
2022-10-17T23:16:14.095Z,57.50
2022-10-17T23:18:42.210Z,57.50
2022-10-17T23:21:11.894Z,57.50
2022-10-17T23:23:39.751Z,57.50
2022-10-17T23:26:10.227Z,57.50
2022-10-17T23:28:38.675Z,57.50
2022-10-17T23:31:14.690Z,57.50
2022-10-17T23:33:44.744Z,57.50
2022-10-17T23:36:15.054Z,57.50
2022-10-17T23:38:44.161Z,57.50
2022-10-17T23:41:12.281Z,57.50
2022-10-17T23:43:40.093Z,57.50
2022-10-17T23:46:08.085Z,57.50
2022-10-17T23:48:37.418Z,57.50
2022-10-17T23:51:06.885Z,57.50
2022-10-17T23:53:36.241Z,57.50
2022-10-17T23:56:04.665Z,57.50
2022-10-17T23:58:32.788Z,57.50
